createdAt,value
2022-10-06T00:01:10.022Z,0.80
2022-10-06T00:03:59.311Z,0.70
2022-10-06T00:06:47.321Z,0.45
2022-10-06T00:09:35.253Z,0.70
2022-10-06T00:12:23.160Z,0.70
2022-10-06T00:15:13.229Z,0.60
2022-10-06T00:18:02.638Z,0.60
2022-10-06T00:20:56.671Z,0.40
2022-10-06T00:23:44.556Z,0.60
2022-10-06T00:26:32.549Z,0.50
2022-10-06T00:29:21.704Z,0.40
2022-10-06T00:32:10.393Z,0.77
2022-10-06T00:34:59.453Z,0.60
2022-10-06T00:37:48.779Z,0.70
2022-10-06T00:40:36.882Z,0.50
2022-10-06T00:43:43.340Z,0.73
2022-10-06T00:46:37.717Z,0.75
2022-10-06T00:49:31.586Z,0.60
2022-10-06T00:52:22.396Z,0.57
2022-10-06T00:55:12.655Z,1.17
2022-10-06T00:58:01.792Z,0.50
2022-10-06T01:00:54.056Z,0.40
2022-10-06T01:03:47.125Z,0.40
2022-10-06T01:06:45.132Z,0.40
2022-10-06T01:09:33.440Z,0.35
2022-10-06T01:12:24.351Z,0.40
2022-10-06T01:15:12.346Z,0.63
2022-10-06T01:18:05.327Z,0.50
2022-10-06T01:20:59.136Z,0.50
2022-10-06T01:23:49.799Z,0.40
2022-10-06T01:26:40.533Z,0.50
2022-10-06T01:29:29.265Z,0.50
2022-10-06T01:32:17.409Z,0.50
2022-10-06T01:35:07.322Z,0.45
2022-10-06T01:37:58.743Z,0.47
2022-10-06T01:40:50.729Z,0.40
2022-10-06T01:43:38.952Z,0.32
2022-10-06T01:46:27.328Z,0.40
2022-10-06T01:49:15.269Z,0.52
2022-10-06T01:52:03.512Z,0.68
2022-10-06T01:54:51.349Z,0.52
2022-10-06T01:57:41.237Z,0.40
2022-10-06T02:00:30.065Z,0.60
2022-10-06T02:03:18.230Z,0.60
2022-10-06T02:06:06.977Z,0.50
2022-10-06T02:08:55.532Z,0.77
2022-10-06T02:11:43.603Z,0.57
2022-10-06T02:14:34.240Z,0.60
2022-10-06T02:17:22.923Z,0.52
2022-10-06T02:20:11.303Z,0.80
2022-10-06T02:22:59.833Z,0.73
2022-10-06T02:25:47.717Z,0.60
2022-10-06T02:28:36.085Z,0.80
2022-10-06T02:31:27.730Z,0.98
2022-10-06T02:34:16.846Z,1.00
2022-10-06T02:37:05.382Z,0.70
2022-10-06T02:39:53.480Z,0.50
2022-10-06T02:42:41.394Z,0.68
2022-10-06T02:45:31.084Z,0.70
2022-10-06T02:48:20.576Z,1.15
2022-10-06T02:51:11.431Z,0.88
2022-10-06T02:53:59.532Z,0.65
2022-10-06T02:56:50.117Z,1.13
2022-10-06T02:59:37.978Z,1.20
2022-10-06T03:02:26.849Z,1.30
2022-10-06T03:05:16.335Z,0.70
2022-10-06T03:08:04.561Z,1.30
2022-10-06T03:10:52.568Z,1.45
2022-10-06T03:13:41.206Z,1.05
2022-10-06T03:16:32.005Z,0.93
2022-10-06T03:19:21.143Z,1.00
2022-10-06T03:22:11.092Z,2.35
2022-10-06T03:25:19.512Z,1.50
2022-10-06T03:28:07.660Z,0.77
2022-10-06T03:30:55.739Z,1.10
2022-10-06T03:33:44.098Z,0.77
2022-10-06T03:36:34.327Z,1.30
2022-10-06T03:39:24.422Z,0.80
2022-10-06T03:42:12.598Z,1.15
2022-10-06T03:45:00.674Z,1.10
2022-10-06T03:47:49.231Z,1.20
2022-10-06T03:50:37.233Z,0.90
2022-10-06T03:53:28.338Z,0.98
2022-10-06T03:56:20.813Z,0.85
2022-10-06T03:59:10.942Z,1.00
2022-10-06T04:02:00.112Z,1.40
2022-10-06T04:04:51.794Z,1.23
2022-10-06T04:07:39.723Z,0.90
2022-10-06T04:10:27.939Z,0.90
2022-10-06T04:13:18.245Z,0.80
2022-10-06T04:16:14.854Z,1.58
2022-10-06T04:19:05.294Z,0.90
2022-10-06T04:21:54.179Z,1.10
2022-10-06T04:24:44.759Z,1.23
2022-10-06T04:27:32.668Z,1.00
2022-10-06T04:30:30.977Z,0.88
2022-10-06T04:33:20.216Z,1.00
2022-10-06T04:36:09.327Z,1.70
2022-10-06T04:38:59.340Z,1.20
2022-10-06T04:41:49.173Z,1.80
2022-10-06T04:44:44.326Z,1.67
2022-10-06T04:47:33.774Z,1.38
2022-10-06T04:50:21.974Z,1.17
2022-10-06T04:53:32.465Z,1.27
2022-10-06T04:56:24.081Z,1.48
2022-10-06T04:59:13.011Z,1.20
2022-10-06T05:02:03.944Z,0.98
2022-10-06T05:04:53.317Z,1.05
2022-10-06T05:07:44.957Z,1.10
2022-10-06T05:10:33.290Z,1.08
2022-10-06T05:13:21.338Z,1.33
2022-10-06T05:16:12.591Z,1.45
2022-10-06T05:19:01.144Z,1.10
2022-10-06T05:21:50.511Z,1.13
2022-10-06T05:24:42.363Z,1.48
2022-10-06T05:27:30.392Z,1.50
2022-10-06T05:30:18.596Z,1.08
2022-10-06T05:33:08.243Z,1.10
2022-10-06T05:35:57.865Z,1.20
2022-10-06T05:38:48.013Z,1.30
2022-10-06T05:41:37.685Z,1.52
2022-10-06T05:44:27.787Z,1.10
2022-10-06T05:47:17.865Z,1.20
2022-10-06T05:50:06.700Z,1.55
2022-10-06T05:52:55.533Z,1.40
2022-10-06T05:55:44.792Z,1.60
2022-10-06T05:58:33.608Z,1.40
2022-10-06T06:01:24.703Z,1.25
2022-10-06T06:04:14.802Z,1.83
2022-10-06T06:07:14.434Z,1.75
2022-10-06T06:10:05.021Z,1.65
2022-10-06T06:12:54.409Z,1.15
2022-10-06T06:16:04.248Z,1.38
2022-10-06T06:18:53.405Z,1.30
2022-10-06T06:21:41.761Z,1.27
2022-10-06T06:24:30.728Z,1.60
2022-10-06T06:27:19.399Z,1.27
2022-10-06T06:30:11.156Z,1.52
2022-10-06T06:33:00.343Z,1.13
2022-10-06T06:35:49.116Z,1.45
2022-10-06T06:38:37.395Z,1.25
2022-10-06T06:41:27.224Z,1.70
2022-10-06T06:44:24.344Z,1.75
2022-10-06T06:47:23.126Z,2.47
2022-10-06T06:50:13.922Z,1.50
2022-10-06T06:53:03.390Z,1.30
2022-10-06T06:55:54.308Z,1.67
2022-10-06T06:58:46.306Z,1.70
2022-10-06T07:01:34.597Z,1.70
2022-10-06T07:04:23.931Z,1.38
2022-10-06T07:07:12.850Z,1.35
2022-10-06T07:10:00.764Z,1.20
2022-10-06T07:12:49.733Z,1.80
2022-10-06T07:15:55.495Z,1.52
2022-10-06T07:19:01.035Z,1.70
2022-10-06T07:22:11.121Z,1.52
2022-10-06T07:25:12.519Z,2.58
2022-10-06T07:28:03.938Z,1.35
2022-10-06T07:30:59.279Z,1.20
2022-10-06T07:33:47.299Z,2.10
2022-10-06T07:36:35.451Z,2.40
2022-10-06T07:39:24.960Z,1.35
2022-10-06T07:42:15.060Z,1.40
2022-10-06T07:45:21.306Z,1.38
2022-10-06T07:48:13.474Z,1.95
2022-10-06T07:51:02.488Z,1.15
2022-10-06T07:53:56.950Z,1.67
2022-10-06T07:56:50.928Z,2.17
2022-10-06T07:59:40.971Z,2.20
2022-10-06T08:02:31.460Z,1.33
2022-10-06T08:05:23.056Z,1.40
2022-10-06T08:08:10.914Z,1.48
2022-10-06T08:11:01.809Z,1.27
2022-10-06T08:13:52.173Z,1.35
2022-10-06T08:16:40.201Z,1.20
2022-10-06T08:19:28.144Z,2.00
2022-10-06T08:22:16.780Z,1.63
2022-10-06T08:25:07.036Z,1.40
2022-10-06T08:27:55.286Z,1.52
2022-10-06T08:30:44.622Z,1.50
2022-10-06T08:33:32.652Z,1.63
2022-10-06T08:36:21.093Z,1.63
2022-10-06T08:39:09.009Z,1.60
2022-10-06T08:41:58.768Z,1.35
2022-10-06T08:44:49.548Z,1.58
2022-10-06T08:47:39.052Z,1.60
2022-10-06T08:50:29.378Z,1.85
2022-10-06T08:53:26.436Z,1.77
2022-10-06T08:56:19.087Z,1.38
2022-10-06T08:59:09.949Z,2.00
2022-10-06T09:01:58.173Z,1.33
2022-10-06T09:04:49.503Z,1.50
2022-10-06T09:07:46.911Z,1.35
2022-10-06T09:10:43.971Z,1.17
2022-10-06T09:13:36.006Z,1.15
2022-10-06T09:16:29.231Z,4.53
2022-10-06T09:19:24.674Z,1.73
2022-10-06T09:22:20.215Z,1.33
2022-10-06T09:25:16.648Z,1.85
2022-10-06T09:28:05.871Z,1.40
2022-10-06T09:30:55.471Z,1.60
2022-10-06T09:33:43.446Z,2.42
2022-10-06T09:36:31.966Z,1.52
2022-10-06T09:39:26.742Z,1.30
2022-10-06T09:42:20.251Z,1.50
2022-10-06T09:45:25.631Z,1.38
2022-10-06T09:48:24.591Z,1.10
2022-10-06T09:51:16.067Z,1.30
2022-10-06T09:54:10.415Z,1.23
2022-10-06T09:57:07.933Z,1.35
2022-10-06T09:59:59.176Z,1.38
2022-10-06T10:02:47.482Z,1.00
2022-10-06T10:05:38.735Z,1.70
2022-10-06T10:08:30.714Z,1.73
2022-10-06T10:11:39.841Z,2.08
2022-10-06T10:14:37.621Z,2.20
2022-10-06T10:17:35.724Z,1.50
2022-10-06T10:20:29.053Z,1.45
2022-10-06T10:23:30.070Z,1.25
2022-10-06T10:26:27.028Z,2.08
2022-10-06T10:29:36.669Z,1.75
2022-10-06T10:32:37.361Z,1.25
2022-10-06T10:35:28.229Z,1.45
2022-10-06T10:38:20.428Z,1.63
2022-10-06T10:41:14.370Z,1.40
2022-10-06T10:44:09.785Z,1.08
2022-10-06T10:47:08.801Z,1.13
2022-10-06T10:50:01.189Z,1.10
2022-10-06T10:52:51.642Z,2.30
2022-10-06T10:55:42.729Z,1.42
2022-10-06T10:58:35.212Z,1.45
2022-10-06T11:01:35.346Z,1.77
2022-10-06T11:04:25.085Z,1.63
2022-10-06T11:07:21.192Z,1.42
2022-10-06T11:10:14.661Z,0.95
2022-10-06T11:13:14.237Z,1.23
2022-10-06T11:16:15.773Z,1.30
2022-10-06T11:19:15.783Z,1.60
2022-10-06T11:22:11.546Z,1.65
2022-10-06T11:25:13.563Z,1.50
2022-10-06T11:28:09.026Z,0.88
2022-10-06T11:31:02.970Z,2.17
2022-10-06T11:33:54.207Z,1.92
2022-10-06T11:36:47.920Z,1.75
2022-10-06T11:39:47.281Z,2.03
2022-10-06T11:42:42.336Z,1.08
2022-10-06T11:45:38.588Z,1.35
2022-10-06T11:48:30.792Z,1.17
2022-10-06T11:51:30.180Z,1.48
2022-10-06T11:54:48.481Z,1.30
2022-10-06T11:58:37.574Z,1.25
2022-10-06T12:01:57.381Z,1.10
2022-10-06T12:06:00.327Z,1.60
2022-10-06T12:08:41.549Z,1.23
2022-10-06T12:11:42.165Z,1.00
2022-10-06T12:17:55.781Z,1.95
2022-10-06T12:20:57.097Z,1.70
2022-10-06T12:23:54.134Z,1.45
2022-10-06T12:26:54.152Z,0.80
2022-10-06T12:29:48.683Z,1.05
2022-10-06T12:32:47.493Z,1.50
2022-10-06T12:35:36.838Z,1.20
2022-10-06T12:38:43.362Z,1.10
2022-10-06T12:42:00.757Z,1.65
2022-10-06T12:44:51.568Z,1.40
2022-10-06T12:47:44.225Z,0.95
2022-10-06T12:50:32.452Z,1.15
2022-10-06T12:53:25.292Z,1.00
2022-10-06T12:56:28.260Z,1.70
2022-10-06T12:59:25.431Z,0.90
2022-10-06T13:02:18.285Z,1.30
2022-10-06T13:05:12.696Z,1.25
2022-10-06T13:08:02.638Z,1.35
2022-10-06T13:10:50.681Z,1.20
2022-10-06T13:13:46.299Z,1.00
2022-10-06T13:16:39.334Z,1.10
2022-10-06T13:19:29.888Z,0.90
2022-10-06T13:22:17.845Z,1.83
2022-10-06T13:25:06.802Z,0.90
2022-10-06T13:27:54.786Z,1.30
2022-10-06T13:30:42.776Z,1.20
2022-10-06T13:33:36.278Z,1.48
2022-10-06T13:36:24.644Z,2.25
2022-10-06T13:39:15.162Z,1.50
2022-10-06T13:42:05.651Z,1.63
2022-10-06T13:44:58.305Z,1.42
2022-10-06T13:47:46.538Z,1.17
2022-10-06T13:50:39.125Z,1.38
2022-10-06T13:53:31.015Z,2.00
2022-10-06T13:59:31.089Z,1.00
2022-10-06T14:02:25.363Z,1.73
2022-10-06T14:05:31.461Z,1.33
2022-10-06T14:08:25.759Z,1.30
2022-10-06T14:11:13.930Z,1.70
2022-10-06T14:14:04.390Z,1.55
2022-10-06T14:16:53.628Z,1.30
2022-10-06T14:19:41.574Z,2.15
2022-10-06T14:22:34.148Z,1.20
2022-10-06T14:25:23.531Z,1.05
2022-10-06T14:28:11.459Z,1.63
2022-10-06T14:30:59.465Z,1.10
2022-10-06T14:33:48.662Z,1.23
2022-10-06T14:36:37.956Z,1.10
2022-10-06T14:39:25.893Z,1.15
2022-10-06T14:42:15.791Z,1.20
2022-10-06T14:45:03.799Z,0.95
2022-10-06T14:47:51.832Z,1.00
2022-10-06T14:50:39.699Z,1.65
2022-10-06T14:53:27.567Z,1.50
2022-10-06T14:56:16.066Z,1.23
2022-10-06T14:59:08.028Z,1.30
2022-10-06T15:01:55.877Z,1.65
2022-10-06T15:04:43.941Z,1.00
2022-10-06T15:07:49.806Z,1.23
2022-10-06T15:10:38.794Z,1.50
2022-10-06T15:13:26.765Z,1.15
2022-10-06T15:16:18.089Z,1.20
2022-10-06T15:19:05.999Z,1.77
2022-10-06T15:21:54.465Z,2.00
2022-10-06T15:24:43.126Z,2.03
2022-10-06T15:27:48.345Z,1.30
2022-10-06T15:30:40.109Z,1.50
2022-10-06T15:33:30.445Z,1.30
2022-10-06T15:36:20.155Z,1.23
2022-10-06T15:39:10.227Z,1.20
2022-10-06T15:41:58.875Z,1.08
2022-10-06T15:44:46.890Z,1.15
2022-10-06T15:47:35.525Z,1.27
2022-10-06T15:50:24.824Z,1.65
2022-10-06T15:53:14.191Z,2.25
2022-10-06T15:56:02.266Z,2.40
2022-10-06T15:58:50.112Z,2.85
2022-10-06T16:01:42.566Z,2.58
2022-10-06T16:04:35.667Z,2.03
2022-10-06T16:07:25.180Z,2.67
2022-10-06T16:10:13.521Z,3.78
2022-10-06T16:13:01.483Z,2.50
2022-10-06T16:15:53.705Z,2.53
2022-10-06T16:18:41.695Z,4.00
2022-10-06T16:21:31.116Z,2.80
2022-10-06T16:24:22.173Z,3.10
2022-10-06T16:27:12.690Z,3.78
2022-10-06T16:30:00.687Z,3.80
2022-10-06T16:32:48.825Z,2.58
2022-10-06T16:35:36.867Z,3.97
2022-10-06T16:38:25.061Z,4.03
2022-10-06T16:41:14.283Z,4.20
2022-10-06T16:44:02.372Z,2.70
2022-10-06T16:46:50.538Z,3.30
2022-10-06T16:49:38.506Z,4.25
2022-10-06T16:52:26.452Z,4.55
2022-10-06T16:55:14.755Z,4.20
2022-10-06T16:58:04.056Z,3.72
2022-10-06T17:00:57.677Z,2.85
2022-10-06T17:03:46.003Z,4.20
2022-10-06T17:06:35.704Z,3.10
2022-10-06T17:09:25.302Z,3.15
2022-10-06T17:12:13.192Z,3.25
2022-10-06T17:15:02.453Z,4.28
2022-10-06T17:17:50.319Z,3.38
2022-10-06T17:20:38.889Z,3.97
2022-10-06T17:23:27.629Z,3.53
2022-10-06T17:26:17.713Z,2.92
2022-10-06T17:29:08.220Z,2.67
2022-10-06T17:32:00.453Z,3.95
2022-10-06T17:34:48.754Z,4.68
2022-10-06T17:37:40.325Z,4.57
2022-10-06T17:40:28.246Z,4.30
2022-10-06T17:43:16.291Z,3.75
2022-10-06T17:46:06.863Z,3.15
2022-10-06T17:48:57.437Z,2.70
2022-10-06T17:51:46.093Z,3.88
2022-10-06T17:54:34.786Z,3.20
2022-10-06T17:57:22.790Z,2.83
2022-10-06T18:00:12.038Z,3.17
2022-10-06T18:03:00.371Z,3.88
2022-10-06T18:05:58.784Z,3.60
2022-10-06T18:08:47.834Z,3.47
2022-10-06T18:11:41.563Z,2.38
2022-10-06T18:14:33.315Z,3.03
2022-10-06T18:17:23.913Z,2.90
2022-10-06T18:20:12.351Z,1.98
2022-10-06T18:23:01.677Z,1.98
2022-10-06T18:25:49.582Z,2.00
2022-10-06T18:28:37.782Z,1.50
2022-10-06T18:31:26.141Z,2.20
2022-10-06T18:37:22.215Z,1.75
2022-10-06T18:40:13.835Z,2.08
2022-10-06T18:43:01.787Z,1.50
2022-10-06T18:46:07.376Z,2.47
2022-10-06T18:48:59.300Z,1.73
2022-10-06T18:51:49.033Z,2.38
2022-10-06T18:54:36.883Z,2.45
2022-10-06T18:57:27.907Z,2.03
2022-10-06T19:00:17.377Z,2.30
2022-10-06T19:03:05.339Z,2.30
2022-10-06T19:05:53.483Z,1.40
2022-10-06T19:08:42.338Z,3.10
2022-10-06T19:11:51.696Z,2.13
2022-10-06T19:14:47.460Z,1.63
2022-10-06T19:17:35.723Z,2.90
2022-10-06T19:20:23.985Z,5.35
2022-10-06T19:23:11.989Z,3.63
2022-10-06T19:26:00.668Z,3.75
2022-10-06T19:28:50.674Z,4.47
2022-10-06T19:31:42.372Z,3.70
2022-10-06T19:34:30.475Z,2.47
2022-10-06T19:37:18.433Z,2.55
2022-10-06T19:40:08.503Z,2.65
2022-10-06T19:42:55.501Z,4.18
2022-10-06T19:45:43.705Z,3.42
2022-10-06T19:48:32.983Z,3.35
2022-10-06T19:51:22.362Z,3.15
2022-10-06T19:54:12.328Z,2.05
2022-10-06T19:57:05.190Z,3.03
2022-10-06T19:59:53.857Z,2.58
2022-10-06T20:02:43.285Z,2.45
2022-10-06T20:05:36.471Z,2.40
2022-10-06T20:08:24.298Z,1.95
2022-10-06T20:11:14.790Z,2.83
2022-10-06T20:14:02.739Z,2.90
2022-10-06T20:16:52.323Z,3.20
2022-10-06T20:19:40.261Z,2.75
2022-10-06T20:22:29.492Z,2.53
2022-10-06T20:25:17.572Z,2.00
2022-10-06T20:28:08.864Z,2.45
2022-10-06T20:30:57.156Z,1.80
2022-10-06T20:33:45.143Z,1.42
2022-10-06T20:36:34.394Z,2.05
2022-10-06T20:39:42.021Z,2.20
2022-10-06T20:42:32.342Z,2.00
2022-10-06T20:45:20.944Z,2.05
2022-10-06T20:48:08.898Z,1.60
2022-10-06T20:50:57.655Z,2.03
2022-10-06T20:53:45.632Z,2.20
2022-10-06T20:56:35.995Z,1.75
2022-10-06T20:59:25.070Z,1.48
2022-10-06T21:02:13.439Z,1.65
2022-10-06T21:05:02.289Z,2.10
2022-10-06T21:07:50.568Z,2.40
2022-10-06T21:10:38.523Z,3.20
2022-10-06T21:13:28.560Z,4.82
2022-10-06T21:16:16.878Z,5.22
2022-10-06T21:19:08.061Z,5.20
2022-10-06T21:21:55.991Z,5.38
2022-10-06T21:24:44.073Z,4.53
2022-10-06T21:27:32.108Z,5.00
2022-10-06T21:30:21.572Z,4.03
2022-10-06T21:33:09.570Z,4.63
2022-10-06T21:36:01.301Z,4.25
2022-10-06T21:38:51.193Z,2.03
2022-10-06T21:41:40.104Z,2.55
2022-10-06T21:44:28.044Z,1.90
2022-10-06T21:47:17.425Z,2.05
2022-10-06T21:50:05.966Z,2.10
2022-10-06T21:52:54.064Z,2.42
2022-10-06T21:55:42.000Z,1.77
2022-10-06T21:58:29.955Z,1.90
2022-10-06T22:01:19.215Z,2.20
2022-10-06T22:04:09.090Z,1.58
2022-10-06T22:06:57.052Z,1.65
2022-10-06T22:09:45.028Z,1.98
2022-10-06T22:12:32.982Z,1.80
2022-10-06T22:15:20.941Z,1.67
2022-10-06T22:18:08.913Z,2.28
2022-10-06T22:20:58.272Z,3.17
2022-10-06T22:23:48.280Z,1.50
2022-10-06T22:26:38.711Z,1.98
2022-10-06T22:29:26.703Z,2.33
2022-10-06T22:32:14.666Z,1.90
2022-10-06T22:35:03.285Z,1.80
2022-10-06T22:37:52.640Z,1.30
2022-10-06T22:40:40.575Z,1.35
2022-10-06T22:43:29.021Z,1.55
2022-10-06T22:46:17.043Z,1.60
2022-10-06T22:49:06.277Z,1.85
2022-10-06T22:51:54.245Z,2.00
2022-10-06T22:54:43.528Z,2.05
2022-10-06T22:57:32.528Z,1.85
2022-10-06T23:00:20.876Z,1.65
2022-10-06T23:03:09.459Z,1.92
2022-10-06T23:05:58.404Z,1.88
2022-10-06T23:08:46.534Z,1.50
2022-10-06T23:11:35.896Z,2.08
2022-10-06T23:14:23.853Z,1.63
2022-10-06T23:17:11.794Z,1.52
2022-10-06T23:19:59.776Z,2.47
2022-10-06T23:22:47.964Z,2.38
2022-10-06T23:25:38.006Z,2.17
2022-10-06T23:28:27.381Z,2.00
2022-10-06T23:31:15.639Z,2.03
2022-10-06T23:34:03.675Z,2.63
2022-10-06T23:36:51.744Z,2.53
2022-10-06T23:39:39.688Z,2.30
2022-10-06T23:42:27.876Z,2.28
2022-10-06T23:45:18.318Z,1.80
2022-10-06T23:48:06.364Z,1.85
2022-10-06T23:50:59.206Z,1.70
2022-10-06T23:53:47.473Z,1.63
2022-10-06T23:56:35.582Z,2.08
2022-10-06T23:59:26.203Z,1.85
